sensor_id;sensor_type;location;lat;lon;timestamp;pressure;altitude;pressure_sealevel;temperature;humidity
62420;BME280;48460;51.616;5.426;2022-09-12T00:01:23;101690.81;;;13.72;100.00
62420;BME280;48460;51.616;5.426;2022-09-12T00:03:57;101690.50;;;13.78;100.00
62420;BME280;48460;51.616;5.426;2022-09-12T00:06:26;101688.03;;;13.75;100.00
62420;BME280;48460;51.616;5.426;2022-09-12T00:08:57;101683.59;;;13.75;100.00
62420;BME280;48460;51.616;5.426;2022-09-12T00:11:24;101680.78;;;13.78;100.00
62420;BME280;48460;51.616;5.426;2022-09-12T00:13:50;101679.66;;;13.82;100.00
62420;BME280;48460;51.616;5.426;2022-09-12T00:16:22;101668.19;;;13.83;100.00
62420;BME280;48460;51.616;5.426;2022-09-12T00:18:48;101674.31;;;13.84;100.00
62420;BME280;48460;51.616;5.426;2022-09-12T00:21:15;101674.38;;;13.82;100.00
62420;BME280;48460;51.616;5.426;2022-09-12T00:23:41;101667.31;;;13.83;100.00
62420;BME280;48460;51.616;5.426;2022-09-12T00:26:07;101672.69;;;13.81;100.00
62420;BME280;48460;51.616;5.426;2022-09-12T00:28:34;101670.28;;;13.77;100.00
62420;BME280;48460;51.616;5.426;2022-09-12T00:31:03;101676.72;;;13.71;100.00
62420;BME280;48460;51.616;5.426;2022-09-12T00:33:29;101659.25;;;13.68;100.00
62420;BME280;48460;51.616;5.426;2022-09-12T00:35:55;101663.66;;;13.68;100.00
62420;BME280;48460;51.616;5.426;2022-09-12T00:38:20;101663.13;;;13.61;100.00
62420;BME280;48460;51.616;5.426;2022-09-12T00:40:46;101666.19;;;13.54;100.00
62420;BME280;48460;51.616;5.426;2022-09-12T00:43:33;101660.19;;;13.50;100.00
62420;BME280;48460;51.616;5.426;2022-09-12T00:46:04;101646.69;;;13.39;100.00
62420;BME280;48460;51.616;5.426;2022-09-12T00:48:52;101652.81;;;13.39;100.00
62420;BME280;48460;51.616;5.426;2022-09-12T00:51:19;101646.06;;;13.34;100.00
62420;BME280;48460;51.616;5.426;2022-09-12T00:53:47;101651.50;;;13.31;100.00
62420;BME280;48460;51.616;5.426;2022-09-12T00:56:15;101648.91;;;13.29;100.00
62420;BME280;48460;51.616;5.426;2022-09-12T00:58:47;101641.94;;;13.28;100.00
62420;BME280;48460;51.616;5.426;2022-09-12T01:01:13;101642.94;;;13.26;100.00
62420;BME280;48460;51.616;5.426;2022-09-12T01:03:39;101639.63;;;13.20;100.00
62420;BME280;48460;51.616;5.426;2022-09-12T01:06:11;101633.81;;;13.14;100.00
62420;BME280;48460;51.616;5.426;2022-09-12T01:08:38;101640.41;;;13.05;100.00
62420;BME280;48460;51.616;5.426;2022-09-12T01:11:05;101643.50;;;12.96;100.00
62420;BME280;48460;51.616;5.426;2022-09-12T01:13:36;101641.16;;;12.90;100.00
62420;BME280;48460;51.616;5.426;2022-09-12T01:16:05;101632.69;;;12.83;100.00
62420;BME280;48460;51.616;5.426;2022-09-12T01:18:54;101635.25;;;12.85;100.00
62420;BME280;48460;51.616;5.426;2022-09-12T01:21:34;101634.53;;;12.81;100.00
62420;BME280;48460;51.616;5.426;2022-09-12T01:32:10;101625.72;;;12.82;100.00
62420;BME280;48460;51.616;5.426;2022-09-12T01:34:50;101628.19;;;12.85;100.00
62420;BME280;48460;51.616;5.426;2022-09-12T01:37:38;101617.25;;;12.93;100.00
62420;BME280;48460;51.616;5.426;2022-09-12T01:40:21;101610.19;;;12.93;100.00
62420;BME280;48460;51.616;5.426;2022-09-12T01:43:06;101615.31;;;12.96;100.00
62420;BME280;48460;51.616;5.426;2022-09-12T01:46:12;101604.69;;;12.98;100.00
62420;BME280;48460;51.616;5.426;2022-09-12T01:49:06;101605.53;;;12.98;100.00
62420;BME280;48460;51.616;5.426;2022-09-12T01:51:43;101607.78;;;12.89;100.00
62420;BME280;48460;51.616;5.426;2022-09-12T01:54:21;101606.91;;;12.71;100.00
62420;BME280;48460;51.616;5.426;2022-09-12T01:56:52;101603.38;;;12.53;100.00
62420;BME280;48460;51.616;5.426;2022-09-12T01:59:29;101600.78;;;12.51;100.00
62420;BME280;48460;51.616;5.426;2022-09-12T02:02:08;101596.44;;;12.50;100.00
62420;BME280;48460;51.616;5.426;2022-09-12T02:04:40;101597.78;;;12.40;100.00
62420;BME280;48460;51.616;5.426;2022-09-12T02:07:13;101591.25;;;12.30;100.00
62420;BME280;48460;51.616;5.426;2022-09-12T02:09:51;101586.94;;;12.29;100.00
62420;BME280;48460;51.616;5.426;2022-09-12T02:12:28;101585.84;;;12.33;100.00
62420;BME280;48460;51.616;5.426;2022-09-12T02:15:01;101576.28;;;12.30;100.00
62420;BME280;48460;51.616;5.426;2022-09-12T02:17:29;101578.63;;;12.37;100.00
62420;BME280;48460;51.616;5.426;2022-09-12T02:20:09;101573.31;;;12.38;100.00
62420;BME280;48460;51.616;5.426;2022-09-12T02:22:37;101584.56;;;12.42;100.00
62420;BME280;48460;51.616;5.426;2022-09-12T02:25:04;101580.41;;;12.36;100.00
62420;BME280;48460;51.616;5.426;2022-09-12T02:27:48;101581.97;;;12.40;100.00
62420;BME280;48460;51.616;5.426;2022-09-12T02:30:15;101581.97;;;12.40;100.00
62420;BME280;48460;51.616;5.426;2022-09-12T02:35:52;101587.78;;;12.29;100.00
62420;BME280;48460;51.616;5.426;2022-09-12T02:38:35;101584.00;;;12.16;100.00
62420;BME280;48460;51.616;5.426;2022-09-12T02:41:01;101591.28;;;12.11;100.00
62420;BME280;48460;51.616;5.426;2022-09-12T02:43:27;101576.31;;;12.12;100.00
62420;BME280;48460;51.616;5.426;2022-09-12T02:45:52;101581.50;;;12.13;100.00
62420;BME280;48460;51.616;5.426;2022-09-12T02:48:23;101578.56;;;12.19;100.00
62420;BME280;48460;51.616;5.426;2022-09-12T02:50:52;101577.56;;;12.22;100.00
62420;BME280;48460;51.616;5.426;2022-09-12T02:53:18;101576.56;;;12.24;100.00
62420;BME280;48460;51.616;5.426;2022-09-12T02:55:43;101572.09;;;12.26;100.00
62420;BME280;48460;51.616;5.426;2022-09-12T02:58:12;101574.50;;;12.31;100.00
62420;BME280;48460;51.616;5.426;2022-09-12T03:00:50;101574.16;;;12.39;100.00
62420;BME280;48460;51.616;5.426;2022-09-12T03:08:55;101558.72;;;12.48;100.00
62420;BME280;48460;51.616;5.426;2022-09-12T03:17:15;101550.75;;;12.50;100.00
62420;BME280;48460;51.616;5.426;2022-09-12T03:19:59;101563.31;;;12.45;100.00
62420;BME280;48460;51.616;5.426;2022-09-12T03:27:55;101551.34;;;12.38;100.00
62420;BME280;48460;51.616;5.426;2022-09-12T03:30:22;101542.56;;;12.37;100.00
62420;BME280;48460;51.616;5.426;2022-09-12T03:32:50;101545.69;;;12.45;100.00
62420;BME280;48460;51.616;5.426;2022-09-12T03:35:18;101549.41;;;12.41;100.00
62420;BME280;48460;51.616;5.426;2022-09-12T03:37:45;101551.91;;;12.44;100.00
62420;BME280;48460;51.616;5.426;2022-09-12T03:40:11;101544.84;;;12.45;100.00
62420;BME280;48460;51.616;5.426;2022-09-12T03:42:37;101552.59;;;12.48;100.00
62420;BME280;48460;51.616;5.426;2022-09-12T03:45:04;101547.25;;;12.49;100.00
62420;BME280;48460;51.616;5.426;2022-09-12T03:47:30;101545.53;;;12.48;100.00
62420;BME280;48460;51.616;5.426;2022-09-12T03:49:55;101551.06;;;12.44;100.00
62420;BME280;48460;51.616;5.426;2022-09-12T03:52:21;101544.13;;;12.41;100.00
62420;BME280;48460;51.616;5.426;2022-09-12T03:54:47;101545.97;;;12.39;100.00
62420;BME280;48460;51.616;5.426;2022-09-12T03:57:12;101540.50;;;12.44;100.00
62420;BME280;48460;51.616;5.426;2022-09-12T03:59:37;101543.84;;;12.47;100.00
62420;BME280;48460;51.616;5.426;2022-09-12T04:02:03;101540.25;;;12.48;100.00
62420;BME280;48460;51.616;5.426;2022-09-12T04:04:29;101532.34;;;12.48;100.00
62420;BME280;48460;51.616;5.426;2022-09-12T04:06:54;101535.97;;;12.46;100.00
62420;BME280;48460;51.616;5.426;2022-09-12T04:09:20;101533.28;;;12.47;100.00
62420;BME280;48460;51.616;5.426;2022-09-12T04:11:45;101534.97;;;12.48;100.00
62420;BME280;48460;51.616;5.426;2022-09-12T04:14:10;101527.16;;;12.47;100.00
62420;BME280;48460;51.616;5.426;2022-09-12T04:16:36;101526.38;;;12.45;100.00
62420;BME280;48460;51.616;5.426;2022-09-12T04:19:01;101535.06;;;12.47;100.00
62420;BME280;48460;51.616;5.426;2022-09-12T04:21:27;101528.06;;;12.46;100.00
62420;BME280;48460;51.616;5.426;2022-09-12T04:23:52;101528.16;;;12.44;100.00
62420;BME280;48460;51.616;5.426;2022-09-12T04:26:18;101526.47;;;12.43;100.00
62420;BME280;48460;51.616;5.426;2022-09-12T04:28:45;101520.41;;;12.41;100.00
62420;BME280;48460;51.616;5.426;2022-09-12T04:31:16;101528.38;;;12.40;100.00
62420;BME280;48460;51.616;5.426;2022-09-12T04:33:43;101522.19;;;12.41;100.00
62420;BME280;48460;51.616;5.426;2022-09-12T04:36:11;101523.09;;;12.40;100.00
62420;BME280;48460;51.616;5.426;2022-09-12T04:38:38;101517.81;;;12.40;100.00
62420;BME280;48460;51.616;5.426;2022-09-12T04:41:31;101515.25;;;12.38;100.00
62420;BME280;48460;51.616;5.426;2022-09-12T04:43:59;101519.75;;;12.36;100.00
62420;BME280;48460;51.616;5.426;2022-09-12T04:46:34;101511.84;;;12.36;100.00
62420;BME280;48460;51.616;5.426;2022-09-12T04:49:00;101508.41;;;12.34;100.00
62420;BME280;48460;51.616;5.426;2022-09-12T04:51:31;101512.84;;;12.34;100.00
62420;BME280;48460;51.616;5.426;2022-09-12T04:54:00;101515.47;;;12.34;100.00
62420;BME280;48460;51.616;5.426;2022-09-12T04:56:27;101518.13;;;12.34;100.00
62420;BME280;48460;51.616;5.426;2022-09-12T04:58:53;101514.63;;;12.33;100.00
62420;BME280;48460;51.616;5.426;2022-09-12T05:01:20;101511.94;;;12.35;100.00
62420;BME280;48460;51.616;5.426;2022-09-12T05:03:47;101509.28;;;12.35;100.00
62420;BME280;48460;51.616;5.426;2022-09-12T05:06:15;101509.44;;;12.31;100.00
62420;BME280;48460;51.616;5.426;2022-09-12T05:08:41;101512.94;;;12.32;100.00
62420;BME280;48460;51.616;5.426;2022-09-12T05:11:10;101512.09;;;12.31;100.00
62420;BME280;48460;51.616;5.426;2022-09-12T05:13:37;101512.94;;;12.32;100.00
62420;BME280;48460;51.616;5.426;2022-09-12T05:16:04;101521.44;;;12.37;100.00
62420;BME280;48460;51.616;5.426;2022-09-12T05:18:31;101515.41;;;12.35;100.00
62420;BME280;48460;51.616;5.426;2022-09-12T05:21:02;101523.94;;;12.40;100.00
62420;BME280;48460;51.616;5.426;2022-09-12T05:23:28;101522.03;;;12.44;100.00
62420;BME280;48460;51.616;5.426;2022-09-12T05:25:57;101519.31;;;12.45;100.00
62420;BME280;48460;51.616;5.426;2022-09-12T05:28:33;101514.03;;;12.45;100.00
62420;BME280;48460;51.616;5.426;2022-09-12T05:31:04;101513.28;;;12.43;100.00
62420;BME280;48460;51.616;5.426;2022-09-12T05:33:37;101512.31;;;12.44;100.00
62420;BME280;48460;51.616;5.426;2022-09-12T05:36:04;101514.88;;;12.46;100.00
62420;BME280;48460;51.616;5.426;2022-09-12T05:38:33;101514.03;;;12.45;100.00
62420;BME280;48460;51.616;5.426;2022-09-12T05:41:07;101514.81;;;12.47;100.00
62420;BME280;48460;51.616;5.426;2022-09-12T05:43:34;101517.31;;;12.50;100.00
62420;BME280;48460;51.616;5.426;2022-09-12T05:46:04;101515.66;;;12.48;100.00
62420;BME280;48460;51.616;5.426;2022-09-12T05:48:33;101521.09;;;12.45;100.00
62420;BME280;48460;51.616;5.426;2022-09-12T05:51:11;101516.66;;;12.45;100.00
62420;BME280;48460;51.616;5.426;2022-09-12T05:53:38;101514.41;;;12.38;100.00
62420;BME280;48460;51.616;5.426;2022-09-12T05:56:17;101512.84;;;12.34;100.00
62420;BME280;48460;51.616;5.426;2022-09-12T05:58:46;101517.22;;;12.35;100.00
62420;BME280;48460;51.616;5.426;2022-09-12T06:01:14;101519.84;;;12.35;100.00
62420;BME280;48460;51.616;5.426;2022-09-12T06:03:48;101530.25;;;12.38;100.00
62420;BME280;48460;51.616;5.426;2022-09-12T06:06:16;101531.94;;;12.39;100.00
62420;BME280;48460;51.616;5.426;2022-09-12T06:08:46;101534.38;;;12.43;100.00
62420;BME280;48460;51.616;5.426;2022-09-12T06:11:14;101537.63;;;12.48;100.00
62420;BME280;48460;51.616;5.426;2022-09-12T06:13:41;101535.47;;;12.57;100.00
62420;BME280;48460;51.616;5.426;2022-09-12T06:16:12;101531.13;;;12.56;100.00
62420;BME280;48460;51.616;5.426;2022-09-12T06:18:39;101533.81;;;12.54;100.00
62420;BME280;48460;51.616;5.426;2022-09-12T06:21:10;101526.06;;;12.51;100.00
62420;BME280;48460;51.616;5.426;2022-09-12T06:23:39;101526.16;;;12.49;100.00
62420;BME280;48460;51.616;5.426;2022-09-12T06:26:07;101525.13;;;12.52;100.00
62420;BME280;48460;51.616;5.426;2022-09-12T06:28:36;101522.06;;;12.61;100.00
62420;BME280;48460;51.616;5.426;2022-09-12T06:33:39;101528.25;;;12.60;100.00
62420;BME280;48460;51.616;5.426;2022-09-12T06:36:05;101536.09;;;12.62;100.00
62420;BME280;48460;51.616;5.426;2022-09-12T06:38:32;101532.88;;;12.55;100.00
62420;BME280;48460;51.616;5.426;2022-09-12T06:40:57;101531.69;;;12.62;100.00
62420;BME280;48460;51.616;5.426;2022-09-12T06:43:25;101524.53;;;12.64;100.00
62420;BME280;48460;51.616;5.426;2022-09-12T06:45:51;101527.56;;;12.74;100.00
62420;BME280;48460;51.616;5.426;2022-09-12T06:48:17;101527.59;;;12.91;100.00
62420;BME280;48460;51.616;5.426;2022-09-12T06:50:42;101517.28;;;13.20;100.00
62420;BME280;48460;51.616;5.426;2022-09-12T06:53:11;101518.94;;;13.56;100.00
62420;BME280;48460;51.616;5.426;2022-09-12T06:55:36;101529.81;;;13.83;100.00
62420;BME280;48460;51.616;5.426;2022-09-12T06:58:01;101510.56;;;13.97;100.00
62420;BME280;48460;51.616;5.426;2022-09-12T07:00:27;101522.50;;;14.20;100.00
62420;BME280;48460;51.616;5.426;2022-09-12T07:02:56;101519.31;;;14.45;100.00
62420;BME280;48460;51.616;5.426;2022-09-12T07:05:21;101521.97;;;14.61;100.00
62420;BME280;48460;51.616;5.426;2022-09-12T07:07:47;101514.47;;;14.83;100.00
62420;BME280;48460;51.616;5.426;2022-09-12T07:10:13;101513.38;;;15.01;100.00
62420;BME280;48460;51.616;5.426;2022-09-12T07:12:39;101506.31;;;15.31;100.00
62420;BME280;48460;51.616;5.426;2022-09-12T07:15:04;101512.47;;;15.45;100.00
62420;BME280;48460;51.616;5.426;2022-09-12T07:17:30;101510.97;;;15.27;100.00
62420;BME280;48460;51.616;5.426;2022-09-12T07:19:55;101505.84;;;15.24;100.00
62420;BME280;48460;51.616;5.426;2022-09-12T07:22:21;101499.78;;;15.22;100.00
62420;BME280;48460;51.616;5.426;2022-09-12T07:24:46;101499.31;;;15.30;100.00
62420;BME280;48460;51.616;5.426;2022-09-12T07:27:12;101504.78;;;15.55;100.00
62420;BME280;48460;51.616;5.426;2022-09-12T07:29:38;101484.25;;;15.59;100.00
62420;BME280;48460;51.616;5.426;2022-09-12T07:32:04;101500.09;;;15.75;100.00
62420;BME280;48460;51.616;5.426;2022-09-12T07:34:30;101501.56;;;15.93;100.00
62420;BME280;48460;51.616;5.426;2022-09-12T07:36:56;101505.03;;;16.08;100.00
62420;BME280;48460;51.616;5.426;2022-09-12T07:39:21;101510.59;;;16.45;100.00
62420;BME280;48460;51.616;5.426;2022-09-12T07:41:47;101524.25;;;16.66;100.00
62420;BME280;48460;51.616;5.426;2022-09-12T07:44:12;101510.38;;;16.75;100.00
62420;BME280;48460;51.616;5.426;2022-09-12T07:46:38;101513.28;;;16.97;99.77
62420;BME280;48460;51.616;5.426;2022-09-12T07:49:04;101513.31;;;17.36;98.63
62420;BME280;48460;51.616;5.426;2022-09-12T07:51:30;101503.31;;;17.26;95.38
62420;BME280;48460;51.616;5.426;2022-09-12T07:53:58;101513.75;;;17.17;96.32
62420;BME280;48460;51.616;5.426;2022-09-12T07:56:28;101512.44;;;17.09;96.86
62420;BME280;48460;51.616;5.426;2022-09-12T07:58:55;101514.38;;;17.33;96.16
62420;BME280;48460;51.616;5.426;2022-09-12T08:01:26;101518.50;;;17.63;97.07
62420;BME280;48460;51.616;5.426;2022-09-12T08:03:57;101520.88;;;18.04;96.54
62420;BME280;48460;51.616;5.426;2022-09-12T08:06:23;101521.94;;;18.38;96.13
62420;BME280;48460;51.616;5.426;2022-09-12T08:08:51;101503.75;;;18.67;91.85
62420;BME280;48460;51.616;5.426;2022-09-12T08:11:19;101512.56;;;18.81;87.60
62420;BME280;48460;51.616;5.426;2022-09-12T08:13:45;101511.03;;;18.65;86.75
62420;BME280;48460;51.616;5.426;2022-09-12T08:16:12;101511.97;;;18.64;88.50
62420;BME280;48460;51.616;5.426;2022-09-12T08:18:39;101516.59;;;18.62;89.02
62420;BME280;48460;51.616;5.426;2022-09-12T08:21:08;101516.66;;;18.85;89.87
62420;BME280;48460;51.616;5.426;2022-09-12T08:23:34;101526.56;;;19.18;85.78
62420;BME280;48460;51.616;5.426;2022-09-12T08:26:02;101528.13;;;19.21;85.26
62420;BME280;48460;51.616;5.426;2022-09-12T08:28:29;101521.59;;;19.13;85.50
62420;BME280;48460;51.616;5.426;2022-09-12T08:31:15;101522.59;;;19.46;86.18
62420;BME280;48460;51.616;5.426;2022-09-12T08:33:41;101526.03;;;19.71;83.75
62420;BME280;48460;51.616;5.426;2022-09-12T08:36:20;101526.72;;;19.62;85.13
62420;BME280;48460;51.616;5.426;2022-09-12T08:38:49;101524.38;;;20.13;85.73
62420;BME280;48460;51.616;5.426;2022-09-12T08:41:25;101524.66;;;20.54;84.19
62420;BME280;48460;51.616;5.426;2022-09-12T08:44:17;101534.28;;;20.98;80.73
62420;BME280;48460;51.616;5.426;2022-09-12T08:47:22;101522.78;;;21.28;79.48
62420;BME280;48460;51.616;5.426;2022-09-12T08:57:43;101513.16;;;21.77;73.73
62420;BME280;48460;51.616;5.426;2022-09-12T09:00:12;101524.13;;;21.74;76.57
62420;BME280;48460;51.616;5.426;2022-09-12T09:10:50;101507.22;;;22.34;73.56
62420;BME280;48460;51.616;5.426;2022-09-12T09:13:32;101509.78;;;22.64;71.84
62420;BME280;48460;51.616;5.426;2022-09-12T09:16:30;101502.66;;;23.12;71.11
62420;BME280;48460;51.616;5.426;2022-09-12T09:19:00;101500.06;;;23.30;68.16
62420;BME280;48460;51.616;5.426;2022-09-12T09:21:31;101499.25;;;23.57;66.45
62420;BME280;48460;51.616;5.426;2022-09-12T09:24:09;101496.41;;;23.58;67.56
62420;BME280;48460;51.616;5.426;2022-09-12T09:26:44;101502.53;;;24.06;63.41
62420;BME280;48460;51.616;5.426;2022-09-12T09:29:18;101502.59;;;23.69;63.43
62420;BME280;48460;51.616;5.426;2022-09-12T09:31:50;101500.91;;;23.95;66.15
62420;BME280;48460;51.616;5.426;2022-09-12T09:34:29;101496.09;;;24.17;64.54
62420;BME280;48460;51.616;5.426;2022-09-12T09:44:52;101492.91;;;24.03;61.67
62420;BME280;48460;51.616;5.426;2022-09-12T09:47:19;101488.28;;;24.59;61.62
62420;BME280;48460;51.616;5.426;2022-09-12T09:49:45;101493.81;;;24.75;60.78
62420;BME280;48460;51.616;5.426;2022-09-12T09:52:14;101473.84;;;25.12;58.90
62420;BME280;48460;51.616;5.426;2022-09-12T09:54:47;101477.84;;;25.26;57.97
62420;BME280;48460;51.616;5.426;2022-09-12T09:59:58;101459.88;;;25.43;55.97
62420;BME280;48460;51.616;5.426;2022-09-12T10:02:25;101460.34;;;25.30;56.20
62420;BME280;48460;51.616;5.426;2022-09-12T10:04:56;101468.53;;;25.55;56.67
62420;BME280;48460;51.616;5.426;2022-09-12T10:07:22;101468.41;;;26.15;54.14
62420;BME280;48460;51.616;5.426;2022-09-12T10:10:15;101453.41;;;26.37;54.99
62420;BME280;48460;51.616;5.426;2022-09-12T10:12:41;101461.81;;;26.99;52.59
62420;BME280;48460;51.616;5.426;2022-09-12T10:15:19;101455.09;;;26.87;51.60
62420;BME280;48460;51.616;5.426;2022-09-12T10:17:47;101453.22;;;26.79;49.88
62420;BME280;48460;51.616;5.426;2022-09-12T10:22:54;101450.94;;;27.32;49.83
62420;BME280;48460;51.616;5.426;2022-09-12T10:25:22;101458.47;;;26.81;48.80
62420;BME280;48460;51.616;5.426;2022-09-12T10:27:55;101445.81;;;26.81;49.30
62420;BME280;48460;51.616;5.426;2022-09-12T10:30:22;101432.91;;;27.08;48.50
62420;BME280;48460;51.616;5.426;2022-09-12T10:32:53;101433.69;;;27.72;47.84
62420;BME280;48460;51.616;5.426;2022-09-12T10:35:28;101427.84;;;27.61;46.42
62420;BME280;48460;51.616;5.426;2022-09-12T10:38:04;101421.06;;;27.34;46.37
62420;BME280;48460;51.616;5.426;2022-09-12T10:40:37;101418.09;;;27.75;45.25
62420;BME280;48460;51.616;5.426;2022-09-12T10:43:16;101424.22;;;28.23;46.25
62420;BME280;48460;51.616;5.426;2022-09-12T10:45:42;101412.03;;;27.81;44.56
62420;BME280;48460;51.616;5.426;2022-09-12T10:48:28;101407.69;;;27.63;45.39
62420;BME280;48460;51.616;5.426;2022-09-12T10:50:56;101403.53;;;27.61;44.68
62420;BME280;48460;51.616;5.426;2022-09-12T10:53:27;101403.63;;;27.99;45.06
62420;BME280;48460;51.616;5.426;2022-09-12T10:56:03;101405.06;;;28.32;46.60
62420;BME280;48460;51.616;5.426;2022-09-12T11:01:43;101403.50;;;28.15;45.58
62420;BME280;48460;51.616;5.426;2022-09-12T11:23:40;101371.63;;;28.25;40.55
62420;BME280;48460;51.616;5.426;2022-09-12T11:26:20;101369.88;;;28.32;40.70
62420;BME280;48460;51.616;5.426;2022-09-12T11:31:55;101386.66;;;28.66;42.67
62420;BME280;48460;51.616;5.426;2022-09-12T11:34:54;101368.72;;;29.75;40.34
62420;BME280;48460;51.616;5.426;2022-09-12T11:37:34;101376.19;;;29.73;39.43
62420;BME280;48460;51.616;5.426;2022-09-12T11:40:18;101366.34;;;30.15;39.48
62420;BME280;48460;51.616;5.426;2022-09-12T11:42:51;101372.91;;;30.20;38.88
62420;BME280;48460;51.616;5.426;2022-09-12T11:45:25;101370.94;;;30.36;39.76
62420;BME280;48460;51.616;5.426;2022-09-12T11:47:56;101380.63;;;31.15;37.85
62420;BME280;48460;51.616;5.426;2022-09-12T11:50:28;101377.94;;;31.28;36.16
62420;BME280;48460;51.616;5.426;2022-09-12T11:52:58;101378.22;;;31.40;36.36
62420;BME280;48460;51.616;5.426;2022-09-12T11:55:27;101371.41;;;31.09;36.57
62420;BME280;48460;51.616;5.426;2022-09-12T11:57:56;101361.69;;;30.93;34.39
62420;BME280;48460;51.616;5.426;2022-09-12T12:00:32;101363.81;;;30.63;34.40
62420;BME280;48460;51.616;5.426;2022-09-12T12:06:11;101351.94;;;30.36;36.82
62420;BME280;48460;51.616;5.426;2022-09-12T12:08:40;101351.03;;;29.43;36.09
62420;BME280;48460;51.616;5.426;2022-09-12T12:11:08;101351.06;;;29.28;36.96
62420;BME280;48460;51.616;5.426;2022-09-12T12:13:38;101343.34;;;28.95;37.90
62420;BME280;48460;51.616;5.426;2022-09-12T12:16:30;101349.59;;;28.66;40.44
62420;BME280;48460;51.616;5.426;2022-09-12T12:19:03;101352.59;;;29.52;38.71
62420;BME280;48460;51.616;5.426;2022-09-12T12:34:35;101339.41;;;28.98;38.25
62420;BME280;48460;51.616;5.426;2022-09-12T12:47:46;101333.56;;;31.14;33.67
62420;BME280;48460;51.616;5.426;2022-09-12T12:52:49;101315.31;;;30.88;34.29
62420;BME280;48460;51.616;5.426;2022-09-12T12:55:20;101310.56;;;30.69;34.90
62420;BME280;48460;51.616;5.426;2022-09-12T12:58:36;101310.34;;;30.07;34.77
62420;BME280;48460;51.616;5.426;2022-09-12T13:00:39;101297.69;;;30.42;35.06
62420;BME280;48460;51.616;5.426;2022-09-12T13:03:28;101302.88;;;31.20;34.60
62420;BME280;48460;51.616;5.426;2022-09-12T13:06:00;101289.66;;;31.92;33.45
62420;BME280;48460;51.616;5.426;2022-09-12T13:08:31;101307.81;;;32.38;33.00
62420;BME280;48460;51.616;5.426;2022-09-12T13:13:29;101294.63;;;32.15;32.07
62420;BME280;48460;51.616;5.426;2022-09-12T13:15:56;101296.09;;;31.44;31.98
62420;BME280;48460;51.616;5.426;2022-09-12T13:21:07;101285.94;;;31.12;31.96
62420;BME280;48460;51.616;5.426;2022-09-12T13:23:36;101271.25;;;30.99;31.77
62420;BME280;48460;51.616;5.426;2022-09-12T13:26:07;101269.59;;;30.22;32.43
62420;BME280;48460;51.616;5.426;2022-09-12T13:28:36;101265.34;;;30.48;33.07
62420;BME280;48460;51.616;5.426;2022-09-12T13:31:04;101264.13;;;30.50;33.04
62420;BME280;48460;51.616;5.426;2022-09-12T13:33:56;101263.38;;;30.28;33.70
62420;BME280;48460;51.616;5.426;2022-09-12T13:39:12;101266.31;;;30.68;34.11
62420;BME280;48460;51.616;5.426;2022-09-12T13:44:25;101260.25;;;30.73;33.09
62420;BME280;48460;51.616;5.426;2022-09-12T13:46:54;101258.69;;;30.85;31.81
62420;BME280;48460;51.616;5.426;2022-09-12T13:49:35;101252.16;;;29.82;33.99
62420;BME280;48460;51.616;5.426;2022-09-12T13:52:14;101247.81;;;30.43;34.14
62420;BME280;48460;51.616;5.426;2022-09-12T13:54:49;101236.44;;;30.75;32.35
62420;BME280;48460;51.616;5.426;2022-09-12T13:57:36;101237.25;;;30.62;33.18
62420;BME280;48460;51.616;5.426;2022-09-12T14:00:06;101226.28;;;30.42;33.05
62420;BME280;48460;51.616;5.426;2022-09-12T14:02:34;101220.31;;;30.60;32.87
62420;BME280;48460;51.616;5.426;2022-09-12T14:05:16;101223.84;;;30.54;33.74
62420;BME280;48460;51.616;5.426;2022-09-12T14:07:51;101230.78;;;29.93;33.50
62420;BME280;48460;51.616;5.426;2022-09-12T14:10:33;101232.25;;;29.25;33.06
62420;BME280;48460;51.616;5.426;2022-09-12T14:13:01;101216.81;;;28.38;35.46
62420;BME280;48460;51.616;5.426;2022-09-12T14:15:32;101217.13;;;27.53;36.97
62420;BME280;48460;51.616;5.426;2022-09-12T14:18:01;101227.56;;;27.33;37.98
62420;BME280;48460;51.616;5.426;2022-09-12T14:20:30;101227.53;;;27.41;37.63
62420;BME280;48460;51.616;5.426;2022-09-12T14:22:59;101225.47;;;28.18;37.31
62420;BME280;48460;51.616;5.426;2022-09-12T14:25:33;101218.09;;;28.72;36.16
62420;BME280;48460;51.616;5.426;2022-09-12T14:28:01;101210.81;;;29.51;36.60
62420;BME280;48460;51.616;5.426;2022-09-12T14:30:35;101206.44;;;29.29;33.60
62420;BME280;48460;51.616;5.426;2022-09-12T14:35:49;101195.47;;;29.37;33.69
62420;BME280;48460;51.616;5.426;2022-09-12T14:40:43;101191.22;;;29.06;34.65
62420;BME280;48460;51.616;5.426;2022-09-12T14:43:40;101185.78;;;28.70;35.19
62420;BME280;48460;51.616;5.426;2022-09-12T14:46:19;101180.31;;;28.49;36.31
62420;BME280;48460;51.616;5.426;2022-09-12T14:49:17;101183.88;;;28.49;35.72
62420;BME280;48460;51.616;5.426;2022-09-12T14:51:53;101177.41;;;28.65;35.21
62420;BME280;48460;51.616;5.426;2022-09-12T14:56:55;101183.78;;;28.79;36.31
62420;BME280;48460;51.616;5.426;2022-09-12T15:04:46;101179.41;;;28.27;37.10
62420;BME280;48460;51.616;5.426;2022-09-12T15:07:29;101174.38;;;28.24;36.63
62420;BME280;48460;51.616;5.426;2022-09-12T15:10:01;101172.41;;;28.03;37.62
62420;BME280;48460;51.616;5.426;2022-09-12T15:12:27;101170.28;;;27.75;37.01
62420;BME280;48460;51.616;5.426;2022-09-12T15:14:58;101180.41;;;27.43;37.41
62420;BME280;48460;51.616;5.426;2022-09-12T15:17:25;101178.56;;;27.13;37.69
62420;BME280;48460;51.616;5.426;2022-09-12T15:19:50;101166.44;;;26.86;37.54
62420;BME280;48460;51.616;5.426;2022-09-12T15:22:15;101170.13;;;26.62;38.92
62420;BME280;48460;51.616;5.426;2022-09-12T15:24:42;101160.81;;;26.72;38.81